createdAt,value
2022-11-27T00:00:07.161Z,4.45
2022-11-27T00:02:40.900Z,4.42
2022-11-27T00:05:08.860Z,4.40
2022-11-27T00:07:35.947Z,4.40
2022-11-27T00:10:03.835Z,4.43
2022-11-27T00:12:31.217Z,4.46
2022-11-27T00:14:58.390Z,4.44
2022-11-27T00:17:25.432Z,4.45
2022-11-27T00:19:52.927Z,4.44
2022-11-27T00:22:19.909Z,4.34
2022-11-27T00:24:46.936Z,4.30
2022-11-27T00:27:14.233Z,4.28
2022-11-27T00:29:41.405Z,4.28
2022-11-27T00:32:08.510Z,4.26
2022-11-27T00:34:36.018Z,4.31
2022-11-27T00:37:03.046Z,4.31
2022-11-27T00:39:30.095Z,4.33
2022-11-27T00:41:57.379Z,4.29
2022-11-27T00:44:24.368Z,4.26
2022-11-27T00:46:51.558Z,4.23
2022-11-27T00:49:18.896Z,4.28
2022-11-27T00:51:45.847Z,4.21
2022-11-27T00:54:12.854Z,4.13
2022-11-27T00:56:40.365Z,4.12
2022-11-27T00:59:07.782Z,4.15
2022-11-27T01:01:37.309Z,4.16
2022-11-27T01:04:07.554Z,4.17
2022-11-27T01:06:34.873Z,4.16
2022-11-27T01:09:01.843Z,4.20
2022-11-27T01:11:31.356Z,4.14
2022-11-27T01:14:00.725Z,4.12
2022-11-27T01:16:29.482Z,4.09
2022-11-27T01:18:58.277Z,4.09
2022-11-27T01:21:27.456Z,4.09
2022-11-27T01:23:54.796Z,4.09
2022-11-27T01:26:22.675Z,4.06
2022-11-27T01:28:52.792Z,4.08
2022-11-27T01:31:23.031Z,4.09
2022-11-27T01:33:56.854Z,4.09
2022-11-27T01:36:24.633Z,4.07
2022-11-27T01:38:51.897Z,4.06
2022-11-27T01:41:27.477Z,4.11
2022-11-27T01:44:23.755Z,4.12
2022-11-27T01:46:53.922Z,4.13
2022-11-27T01:49:23.208Z,4.07
2022-11-27T01:51:59.795Z,4.01
2022-11-27T01:54:39.246Z,4.01
2022-11-27T01:57:16.604Z,4.03
2022-11-27T01:59:45.031Z,4.02
2022-11-27T02:02:12.100Z,3.98
2022-11-27T02:04:39.631Z,4.03
2022-11-27T02:07:07.211Z,4.03
2022-11-27T02:09:34.612Z,4.01
2022-11-27T02:12:10.439Z,4.01
2022-11-27T02:14:47.706Z,3.99
2022-11-27T02:17:40.827Z,4.07
2022-11-27T02:20:26.566Z,4.08
2022-11-27T02:23:17.766Z,4.02
2022-11-27T02:26:09.884Z,3.99
2022-11-27T02:29:01.952Z,3.99
2022-11-27T02:31:31.965Z,3.99
2022-11-27T02:34:06.698Z,3.95
2022-11-27T02:36:35.523Z,3.97
2022-11-27T02:39:07.176Z,3.93
2022-11-27T02:41:51.291Z,3.96
2022-11-27T02:44:18.726Z,3.91
2022-11-27T02:46:46.845Z,3.90
2022-11-27T02:49:17.185Z,3.89
2022-11-27T02:51:48.206Z,3.90
2022-11-27T02:54:20.151Z,3.94
2022-11-27T02:56:48.236Z,3.85
2022-11-27T02:59:16.615Z,3.81
2022-11-27T03:01:46.425Z,3.79
2022-11-27T03:04:18.810Z,3.75
2022-11-27T03:06:54.859Z,3.74
2022-11-27T03:09:44.135Z,3.71
2022-11-27T03:12:12.639Z,3.64
2022-11-27T03:14:41.954Z,3.63
2022-11-27T03:17:20.913Z,3.53
2022-11-27T03:20:01.316Z,3.48
2022-11-27T03:22:31.609Z,3.48
2022-11-27T03:24:59.110Z,3.46
2022-11-27T03:27:31.077Z,3.43
2022-11-27T03:30:01.054Z,3.41
2022-11-27T03:32:29.181Z,3.34
2022-11-27T03:34:56.370Z,3.35
2022-11-27T03:37:24.084Z,3.34
2022-11-27T03:39:51.335Z,3.32
2022-11-27T03:42:31.286Z,3.31
2022-11-27T03:45:05.584Z,3.30
2022-11-27T03:47:54.203Z,3.32
2022-11-27T03:50:36.792Z,3.31
2022-11-27T03:53:34.392Z,3.31
2022-11-27T03:56:10.053Z,3.29
2022-11-27T03:58:50.317Z,3.23
2022-11-27T04:01:20.193Z,3.22
2022-11-27T04:03:47.709Z,3.26
2022-11-27T04:06:15.124Z,3.16
2022-11-27T04:08:42.528Z,3.14
2022-11-27T04:11:09.819Z,3.08
2022-11-27T04:13:37.163Z,3.04
2022-11-27T04:16:04.786Z,2.96
2022-11-27T04:18:32.122Z,2.98
2022-11-27T04:20:59.307Z,2.93
2022-11-27T04:23:26.311Z,2.96
2022-11-27T04:25:53.663Z,2.91
2022-11-27T04:28:20.735Z,2.87
2022-11-27T04:30:51.963Z,2.78
2022-11-27T04:33:19.360Z,2.75
2022-11-27T04:35:46.340Z,2.77
2022-11-27T04:38:13.374Z,2.78
2022-11-27T04:40:40.720Z,2.76
2022-11-27T04:43:07.704Z,2.77
2022-11-27T04:45:34.792Z,2.70
2022-11-27T04:48:02.089Z,2.67
2022-11-27T04:50:29.887Z,2.66
2022-11-27T04:52:57.058Z,2.62
2022-11-27T04:55:24.332Z,2.58
2022-11-27T04:57:53.887Z,2.58
2022-11-27T05:00:21.487Z,2.53
2022-11-27T05:02:48.804Z,2.57
2022-11-27T05:05:17.204Z,2.59
2022-11-27T05:07:44.337Z,2.53
2022-11-27T05:10:11.869Z,2.53
2022-11-27T05:12:39.019Z,2.47
2022-11-27T05:15:06.871Z,2.38
2022-11-27T05:17:34.143Z,2.30
2022-11-27T05:20:01.119Z,2.27
2022-11-27T05:22:28.176Z,2.25
2022-11-27T05:24:55.484Z,2.16
2022-11-27T05:27:22.487Z,2.14
2022-11-27T05:29:49.679Z,2.10
2022-11-27T05:32:16.983Z,2.05
2022-11-27T05:34:43.994Z,2.00
2022-11-27T05:37:17.907Z,1.94
2022-11-27T05:39:46.794Z,1.81
2022-11-27T05:42:13.843Z,1.75
2022-11-27T05:44:41.027Z,1.70
2022-11-27T05:47:08.579Z,1.69
2022-11-27T05:49:35.702Z,1.63
2022-11-27T05:52:02.689Z,1.61
2022-11-27T05:54:29.966Z,1.67
2022-11-27T05:56:56.947Z,1.66
2022-11-27T05:59:24.028Z,1.73
2022-11-27T06:01:51.392Z,1.76
2022-11-27T06:04:19.086Z,1.75
2022-11-27T06:06:46.088Z,1.78
2022-11-27T06:09:13.729Z,1.80
2022-11-27T06:11:42.206Z,1.87
2022-11-27T06:14:10.207Z,1.93
2022-11-27T06:16:37.666Z,2.06
2022-11-27T06:19:05.076Z,2.13
2022-11-27T06:21:32.088Z,2.20
2022-11-27T06:23:59.229Z,2.29
2022-11-27T06:26:29.246Z,2.34
2022-11-27T06:28:57.963Z,2.38
2022-11-27T06:31:28.076Z,2.46
2022-11-27T06:33:56.053Z,2.50
2022-11-27T06:36:26.713Z,2.58
2022-11-27T06:38:53.697Z,2.61
2022-11-27T06:41:22.882Z,2.65
2022-11-27T06:43:49.884Z,2.67
2022-11-27T06:46:19.073Z,2.73
2022-11-27T06:48:50.133Z,2.86
2022-11-27T06:51:27.663Z,2.94
2022-11-27T06:53:55.461Z,2.97
2022-11-27T06:56:27.361Z,2.97
2022-11-27T06:58:56.986Z,3.06
2022-11-27T07:01:25.791Z,3.08
2022-11-27T07:03:53.064Z,3.17
2022-11-27T07:06:22.342Z,3.19
2022-11-27T07:08:49.682Z,3.18
2022-11-27T07:11:19.378Z,3.18
2022-11-27T07:13:47.795Z,3.21
2022-11-27T07:16:15.738Z,3.20
2022-11-27T07:18:48.949Z,3.34
2022-11-27T07:21:16.655Z,3.47
2022-11-27T07:23:45.051Z,3.47
2022-11-27T07:26:13.371Z,3.54
2022-11-27T07:28:43.765Z,3.59
2022-11-27T07:31:12.631Z,3.61
2022-11-27T07:33:39.966Z,3.67
2022-11-27T07:36:11.056Z,3.72
2022-11-27T07:38:38.434Z,3.76
2022-11-27T07:41:06.374Z,3.67
2022-11-27T07:43:34.775Z,3.78
2022-11-27T07:46:11.073Z,3.83
2022-11-27T07:48:39.263Z,3.84
2022-11-27T07:51:10.424Z,3.78
2022-11-27T07:53:38.626Z,3.75
2022-11-27T07:56:07.628Z,3.86
2022-11-27T07:58:34.842Z,3.87
2022-11-27T08:01:05.590Z,3.93
2022-11-27T08:03:32.891Z,3.89
2022-11-27T08:05:59.893Z,3.96
2022-11-27T08:08:26.888Z,3.95
2022-11-27T08:10:54.170Z,3.96
2022-11-27T08:13:21.179Z,3.99
2022-11-27T08:15:48.407Z,4.03
2022-11-27T08:18:15.731Z,4.05
2022-11-27T08:20:42.766Z,4.05
2022-11-27T08:23:09.843Z,4.09
2022-11-27T08:25:38.142Z,4.19
2022-11-27T08:28:05.153Z,4.21
2022-11-27T08:30:32.202Z,4.17
2022-11-27T08:32:59.499Z,4.20
2022-11-27T08:35:27.908Z,4.30
2022-11-27T08:37:55.099Z,4.32
2022-11-27T08:40:22.404Z,4.38
2022-11-27T08:42:49.447Z,4.40
2022-11-27T08:45:19.167Z,4.39
2022-11-27T08:47:46.428Z,4.30
2022-11-27T08:50:13.397Z,4.24
2022-11-27T08:52:40.404Z,4.28
2022-11-27T08:55:08.195Z,4.38
2022-11-27T08:57:36.237Z,4.36
2022-11-27T09:00:04.407Z,4.38
2022-11-27T09:02:31.698Z,4.41
2022-11-27T09:04:58.672Z,4.40
2022-11-27T09:07:25.939Z,4.22
2022-11-27T09:09:53.217Z,4.16
2022-11-27T09:12:20.216Z,4.12
2022-11-27T09:14:47.214Z,4.20
2022-11-27T09:17:14.540Z,4.28
2022-11-27T09:19:41.539Z,4.40
2022-11-27T09:22:08.553Z,4.48
2022-11-27T09:24:36.775Z,4.42
2022-11-27T09:27:03.805Z,4.50
2022-11-27T09:29:30.807Z,4.50
2022-11-27T09:31:58.127Z,4.46
2022-11-27T09:34:25.120Z,4.56
2022-11-27T09:36:52.208Z,4.71
2022-11-27T09:39:20.189Z,4.73
2022-11-27T09:41:49.329Z,4.86
2022-11-27T09:44:43.551Z,4.98
2022-11-27T09:47:26.110Z,5.00
2022-11-27T09:50:02.006Z,5.02
2022-11-27T09:52:40.277Z,5.07
2022-11-27T09:55:15.268Z,4.98
2022-11-27T09:57:42.840Z,4.99
2022-11-27T10:00:19.201Z,4.77
2022-11-27T10:02:46.872Z,4.92
2022-11-27T10:05:23.671Z,4.91
2022-11-27T10:08:07.284Z,4.94
2022-11-27T10:10:44.813Z,5.07
2022-11-27T10:13:12.085Z,5.08
2022-11-27T10:15:39.003Z,5.02
2022-11-27T10:18:14.450Z,4.97
2022-11-27T10:20:46.984Z,5.17
2022-11-27T10:23:41.841Z,5.21
2022-11-27T10:26:19.010Z,5.29
2022-11-27T10:29:09.609Z,5.25
2022-11-27T10:32:54.249Z,5.11
2022-11-27T10:35:17.537Z,5.10
2022-11-27T10:38:06.333Z,5.19
2022-11-27T10:40:36.592Z,5.19
2022-11-27T10:43:10.616Z,5.10
2022-11-27T10:45:46.286Z,5.08
2022-11-27T10:48:14.336Z,5.30
2022-11-27T10:50:42.126Z,5.39
2022-11-27T10:53:18.827Z,5.45
2022-11-27T10:55:52.129Z,5.50
2022-11-27T10:58:33.668Z,5.50
2022-11-27T11:01:12.159Z,5.52
2022-11-27T11:03:39.488Z,5.53
2022-11-27T11:06:20.608Z,5.35
2022-11-27T11:08:49.332Z,5.29
2022-11-27T11:11:25.779Z,5.48
2022-11-27T11:13:52.864Z,5.31
2022-11-27T11:16:29.436Z,5.30
2022-11-27T11:19:01.028Z,5.25
2022-11-27T11:21:42.508Z,5.27
2022-11-27T11:24:25.890Z,5.32
2022-11-27T11:26:59.250Z,5.30
2022-11-27T11:29:31.216Z,5.21
2022-11-27T11:32:05.796Z,5.32
2022-11-27T11:34:33.111Z,5.27
2022-11-27T11:37:05.896Z,5.26
2022-11-27T11:39:45.675Z,5.27
2022-11-27T11:42:21.817Z,5.23
2022-11-27T11:45:02.337Z,5.14
2022-11-27T11:47:32.291Z,5.12
2022-11-27T11:50:01.640Z,5.06
2022-11-27T11:52:41.610Z,4.98
2022-11-27T11:55:20.485Z,4.92
2022-11-27T11:57:47.392Z,4.91
2022-11-27T12:00:17.506Z,5.09
2022-11-27T12:03:15.439Z,5.17
2022-11-27T12:06:06.311Z,5.11
2022-11-27T12:08:50.380Z,5.10
2022-11-27T12:11:33.039Z,4.97
2022-11-27T12:14:07.105Z,5.09
2022-11-27T12:16:48.555Z,5.04
2022-11-27T12:19:25.039Z,5.11
2022-11-27T12:22:37.336Z,5.23
2022-11-27T12:25:41.614Z,5.14
2022-11-27T12:28:39.056Z,5.05
2022-11-27T12:31:42.079Z,4.89
2022-11-27T12:34:11.816Z,4.78
2022-11-27T12:36:41.916Z,4.77
2022-11-27T12:39:23.714Z,4.82
2022-11-27T12:42:21.621Z,4.80
2022-11-27T12:45:23.777Z,4.76
2022-11-27T12:48:02.498Z,4.76
2022-11-27T12:50:30.223Z,4.87
2022-11-27T12:53:02.771Z,4.92
2022-11-27T12:55:31.130Z,4.91
2022-11-27T12:58:06.010Z,4.86
2022-11-27T13:00:36.857Z,4.85
2022-11-27T13:03:26.686Z,4.92
2022-11-27T13:05:57.068Z,4.90
2022-11-27T13:08:39.538Z,4.97
2022-11-27T13:11:11.628Z,5.09
2022-11-27T13:13:51.650Z,4.99
2022-11-27T13:16:35.265Z,4.88
2022-11-27T13:19:25.284Z,4.82
2022-11-27T13:21:53.264Z,4.84
2022-11-27T13:24:21.214Z,4.72
2022-11-27T13:27:14.529Z,4.74
2022-11-27T13:29:49.270Z,4.83
2022-11-27T13:32:27.707Z,4.70
2022-11-27T13:35:01.613Z,4.71
2022-11-27T13:37:40.051Z,4.86
2022-11-27T13:40:19.603Z,4.89
2022-11-27T13:42:49.718Z,4.75
2022-11-27T13:45:29.201Z,4.67
2022-11-27T13:47:57.480Z,4.77
2022-11-27T13:50:30.840Z,4.65
2022-11-27T13:53:04.394Z,4.59
2022-11-27T13:55:38.555Z,4.76
2022-11-27T13:58:06.834Z,4.74
2022-11-27T14:00:45.176Z,4.73
2022-11-27T14:03:24.273Z,4.72
2022-11-27T14:05:51.355Z,4.63
2022-11-27T14:08:34.096Z,4.57
2022-11-27T14:11:04.678Z,4.54
2022-11-27T14:13:44.096Z,4.47
2022-11-27T14:16:28.089Z,4.38
2022-11-27T14:18:58.938Z,4.43
2022-11-27T14:21:31.061Z,4.47
2022-11-27T14:24:00.581Z,4.42
2022-11-27T14:26:27.632Z,4.35
2022-11-27T14:28:55.818Z,4.34
2022-11-27T14:31:31.577Z,4.32
2022-11-27T14:34:15.623Z,4.25
2022-11-27T14:36:45.416Z,4.32
2022-11-27T14:39:44.862Z,4.33
2022-11-27T14:42:28.132Z,4.40
2022-11-27T14:45:13.112Z,4.41
2022-11-27T14:47:47.631Z,4.30
2022-11-27T14:50:14.787Z,4.23
2022-11-27T14:52:44.816Z,4.25
2022-11-27T14:55:20.826Z,4.14
2022-11-27T14:57:49.661Z,4.13
2022-11-27T15:00:21.868Z,4.12
2022-11-27T15:02:50.463Z,4.20
2022-11-27T15:05:28.856Z,4.23
2022-11-27T15:07:57.998Z,4.26
2022-11-27T15:10:33.324Z,4.18
2022-11-27T15:13:02.006Z,4.13
2022-11-27T15:15:34.688Z,4.09
2022-11-27T15:18:05.625Z,4.07
2022-11-27T15:20:43.779Z,4.07
2022-11-27T15:23:29.683Z,4.06
2022-11-27T15:25:59.696Z,4.07
2022-11-27T15:28:33.947Z,4.16
2022-11-27T15:31:02.126Z,4.16
2022-11-27T15:33:31.638Z,4.07
2022-11-27T15:36:19.936Z,4.05
2022-11-27T15:38:47.783Z,4.01
2022-11-27T15:41:43.596Z,4.02
2022-11-27T15:44:11.087Z,4.07
2022-11-27T15:46:38.058Z,4.04
2022-11-27T15:49:17.171Z,3.99
2022-11-27T15:51:44.511Z,3.97
2022-11-27T15:54:11.467Z,4.02
2022-11-27T15:56:38.448Z,4.11
2022-11-27T15:59:06.023Z,4.21
2022-11-27T16:01:33.078Z,4.15
2022-11-27T16:04:00.493Z,4.26
2022-11-27T16:06:27.487Z,4.21
2022-11-27T16:08:59.716Z,4.21
2022-11-27T16:11:29.683Z,4.25
2022-11-27T16:13:56.950Z,4.35
2022-11-27T16:16:24.303Z,4.29
2022-11-27T16:18:51.667Z,4.22
2022-11-27T16:21:18.868Z,4.27
2022-11-27T16:23:45.907Z,4.21
2022-11-27T16:26:14.754Z,4.22
2022-11-27T16:28:41.905Z,4.18
2022-11-27T16:31:11.502Z,4.21
2022-11-27T16:33:38.923Z,4.21
2022-11-27T16:36:10.790Z,4.19
2022-11-27T16:38:41.986Z,4.17
2022-11-27T16:41:19.335Z,4.20
2022-11-27T16:43:48.822Z,4.13
2022-11-27T16:46:26.314Z,4.12
2022-11-27T16:48:54.363Z,4.13
2022-11-27T16:51:24.704Z,4.14
2022-11-27T16:53:53.771Z,4.01
2022-11-27T16:56:24.003Z,3.87
2022-11-27T16:58:56.725Z,3.90
2022-11-27T17:01:32.021Z,3.91
2022-11-27T17:04:04.682Z,3.89
2022-11-27T17:06:33.144Z,3.93
2022-11-27T17:09:01.729Z,3.81
2022-11-27T17:11:33.618Z,3.92
2022-11-27T17:14:06.489Z,3.88
2022-11-27T17:16:34.237Z,3.88
2022-11-27T17:19:03.698Z,3.95
2022-11-27T17:21:33.790Z,3.93
2022-11-27T17:24:04.621Z,3.90
2022-11-27T17:26:34.789Z,3.94
2022-11-27T17:29:03.456Z,3.97
2022-11-27T17:31:32.750Z,3.98
2022-11-27T17:34:01.322Z,3.91
2022-11-27T17:36:33.737Z,3.95
2022-11-27T17:39:05.091Z,3.99
2022-11-27T17:41:32.150Z,3.98
2022-11-27T17:43:59.210Z,3.95
2022-11-27T17:46:28.413Z,3.95
2022-11-27T17:48:59.013Z,3.95
2022-11-27T17:51:27.934Z,3.83
2022-11-27T17:53:55.120Z,3.87
2022-11-27T17:56:23.539Z,3.82
2022-11-27T17:58:50.848Z,3.89
2022-11-27T18:01:23.684Z,3.83
2022-11-27T18:03:54.005Z,3.92
2022-11-27T18:06:22.709Z,3.87
2022-11-27T18:08:50.047Z,3.93
2022-11-27T18:11:21.491Z,3.95
2022-11-27T18:13:49.202Z,3.93
2022-11-27T18:16:37.234Z,3.83
2022-11-27T18:19:06.967Z,3.89
2022-11-27T18:21:34.946Z,3.90
2022-11-27T18:29:38.540Z,3.86
2022-11-27T18:32:06.455Z,3.76
2022-11-27T18:34:33.616Z,3.80
2022-11-27T18:37:00.895Z,3.78
2022-11-27T18:39:28.346Z,3.83
2022-11-27T18:41:55.353Z,3.84
2022-11-27T18:44:22.668Z,3.79
2022-11-27T18:46:50.680Z,3.77
2022-11-27T18:49:18.253Z,3.70
2022-11-27T18:51:46.720Z,3.75
2022-11-27T18:54:14.005Z,3.83
2022-11-27T18:56:41.067Z,3.81
2022-11-27T18:59:09.087Z,3.72
2022-11-27T19:01:42.074Z,3.65
2022-11-27T19:04:11.030Z,3.67
2022-11-27T19:06:39.350Z,3.60
2022-11-27T19:09:06.497Z,3.67
2022-11-27T19:11:34.867Z,3.67
2022-11-27T19:14:03.711Z,3.70
2022-11-27T19:16:33.179Z,3.78
2022-11-27T19:19:02.186Z,3.77
2022-11-27T19:21:30.880Z,3.78
2022-11-27T19:24:01.539Z,3.80
2022-11-27T19:26:33.698Z,3.81
2022-11-27T19:29:04.060Z,3.84
2022-11-27T19:31:33.053Z,3.88
2022-11-27T19:34:02.122Z,3.85
2022-11-27T19:36:30.658Z,3.78
2022-11-27T19:39:10.789Z,3.78
2022-11-27T19:41:38.294Z,3.75
2022-11-27T19:44:06.128Z,3.70
2022-11-27T19:46:35.280Z,3.76
2022-11-27T19:49:08.259Z,3.83
2022-11-27T19:51:36.894Z,3.78
2022-11-27T19:54:09.875Z,3.84
2022-11-27T19:56:39.978Z,3.72
2022-11-27T19:59:08.735Z,3.64
2022-11-27T20:01:37.523Z,3.69
2022-11-27T20:04:06.378Z,3.68
2022-11-27T20:06:33.774Z,3.78
2022-11-27T20:09:03.181Z,3.68
2022-11-27T20:11:34.867Z,3.75
2022-11-27T20:14:04.311Z,3.71
2022-11-27T20:16:35.696Z,3.64
2022-11-27T20:19:05.483Z,3.70
2022-11-27T20:21:33.406Z,3.72
2022-11-27T20:24:01.670Z,3.69
2022-11-27T20:26:30.460Z,3.66
2022-11-27T20:28:58.876Z,3.65
2022-11-27T20:31:31.728Z,3.55
2022-11-27T20:34:01.308Z,3.49
2022-11-27T20:36:30.032Z,3.48
2022-11-27T20:38:59.389Z,3.54
2022-11-27T20:41:27.759Z,3.50
2022-11-27T20:44:00.264Z,3.48
2022-11-27T20:46:28.553Z,3.47
2022-11-27T20:48:55.984Z,3.50
2022-11-27T20:51:28.706Z,3.51
2022-11-27T20:53:57.576Z,3.57
2022-11-27T20:56:46.303Z,3.62
2022-11-27T20:59:13.781Z,3.57
2022-11-27T21:01:44.574Z,3.58
2022-11-27T21:04:29.571Z,3.56
2022-11-27T21:06:57.633Z,3.53
2022-11-27T21:09:24.890Z,3.50
2022-11-27T21:11:51.910Z,3.51
2022-11-27T21:14:19.248Z,3.50
2022-11-27T21:16:48.399Z,3.53
2022-11-27T21:19:21.609Z,3.51
2022-11-27T21:21:50.583Z,3.53
2022-11-27T21:24:18.908Z,3.48
2022-11-27T21:26:47.029Z,3.51
2022-11-27T21:29:15.096Z,3.49
2022-11-27T21:31:46.428Z,3.46
2022-11-27T21:34:14.794Z,3.48
2022-11-27T21:36:42.114Z,3.44
2022-11-27T21:39:10.586Z,3.41
2022-11-27T21:41:37.959Z,3.38
2022-11-27T21:44:05.731Z,3.28
2022-11-27T21:46:33.483Z,3.30
2022-11-27T21:49:03.280Z,3.39
2022-11-27T21:51:30.817Z,3.36
2022-11-27T21:53:58.941Z,3.46
2022-11-27T21:56:28.485Z,3.46
2022-11-27T21:58:55.867Z,3.45
2022-11-27T22:01:25.339Z,3.33
2022-11-27T22:03:57.420Z,3.30
2022-11-27T22:06:27.058Z,3.42
2022-11-27T22:08:57.062Z,3.37
2022-11-27T22:11:27.764Z,3.41
2022-11-27T22:13:59.805Z,3.38
2022-11-27T22:16:29.905Z,3.39
2022-11-27T22:18:58.802Z,3.33
2022-11-27T22:21:27.451Z,3.29
2022-11-27T22:23:54.969Z,3.21
2022-11-27T22:26:23.971Z,3.21
2022-11-27T22:28:51.721Z,3.31
2022-11-27T22:31:20.341Z,3.29
2022-11-27T22:33:49.706Z,3.37
2022-11-27T22:36:19.403Z,3.37
2022-11-27T22:38:47.719Z,3.37
2022-11-27T22:41:16.236Z,3.44
2022-11-27T22:43:43.349Z,3.46
2022-11-27T22:46:16.275Z,3.53
2022-11-27T22:48:44.171Z,3.41
2022-11-27T22:51:11.699Z,3.40
2022-11-27T22:53:38.922Z,3.35
2022-11-27T22:56:08.470Z,3.33
2022-11-27T22:58:41.024Z,3.29
2022-11-27T23:01:13.169Z,3.33
2022-11-27T23:03:40.378Z,3.31
2022-11-27T23:06:12.110Z,3.29
2022-11-27T23:08:40.572Z,3.30
2022-11-27T23:11:09.111Z,3.36
2022-11-27T23:13:36.915Z,3.41
2022-11-27T23:16:06.686Z,3.47
2022-11-27T23:18:34.373Z,3.46
2022-11-27T23:21:09.386Z,3.57
2022-11-27T23:23:36.768Z,3.48
2022-11-27T23:26:18.087Z,3.51
2022-11-27T23:28:47.069Z,3.49
2022-11-27T23:31:29.616Z,3.45
2022-11-27T23:33:58.479Z,3.54
2022-11-27T23:36:25.818Z,3.54
2022-11-27T23:38:52.911Z,3.55
2022-11-27T23:41:23.401Z,3.52
2022-11-27T23:43:51.541Z,3.50
2022-11-27T23:46:20.378Z,3.48
2022-11-27T23:48:47.723Z,3.46
2022-11-27T23:51:19.248Z,3.33
2022-11-27T23:53:47.017Z,3.34
2022-11-27T23:56:17.338Z,3.35
2022-11-27T23:58:47.281Z,3.39
